createdAt,value
2023-01-20T00:00:57.561Z,21.80
2023-01-20T00:01:57.484Z,21.00
2023-01-20T00:02:57.853Z,19.80
2023-01-20T00:03:57.796Z,19.30
2023-01-20T00:04:57.437Z,18.50
2023-01-20T00:05:57.581Z,20.00
2023-01-20T00:06:57.610Z,19.00
2023-01-20T00:07:57.445Z,22.50
2023-01-20T00:08:57.351Z,21.50
2023-01-20T00:09:57.497Z,17.70
2023-01-20T00:10:57.468Z,19.40
2023-01-20T00:11:57.540Z,21.60
2023-01-20T00:12:57.419Z,22.10
2023-01-20T00:13:57.353Z,20.30
2023-01-20T00:14:57.521Z,23.10
2023-01-20T00:15:57.361Z,22.80
2023-01-20T00:16:57.248Z,25.20
2023-01-20T00:17:57.461Z,23.20
2023-01-20T00:18:57.442Z,21.40
2023-01-20T00:19:57.658Z,23.00
2023-01-20T00:20:57.317Z,25.80
2023-01-20T00:21:57.284Z,22.90
2023-01-20T00:22:57.301Z,23.90
2023-01-20T00:23:57.300Z,22.60
2023-01-20T00:24:57.419Z,23.40
2023-01-20T00:25:57.121Z,25.00
2023-01-20T00:26:57.301Z,21.10
2023-01-20T00:27:57.117Z,23.70
2023-01-20T00:28:57.232Z,24.40
2023-01-20T00:29:57.411Z,25.60
2023-01-20T00:30:57.216Z,25.20
2023-01-20T00:31:57.241Z,23.00
2023-01-20T00:32:57.073Z,21.50
2023-01-20T00:33:57.383Z,24.50
2023-01-20T00:34:57.009Z,24.90
2023-01-20T00:35:57.197Z,25.00
2023-01-20T00:36:56.995Z,28.20
2023-01-20T00:37:57.183Z,26.10
2023-01-20T00:38:56.977Z,25.30
2023-01-20T00:39:57.245Z,23.20
2023-01-20T00:40:57.309Z,25.20
2023-01-20T00:41:57.124Z,24.20
2023-01-20T00:42:56.967Z,29.70
2023-01-20T00:43:57.043Z,24.40
2023-01-20T00:44:57.306Z,25.20
2023-01-20T00:45:56.918Z,26.30
2023-01-20T00:46:56.994Z,28.20
2023-01-20T00:47:56.940Z,30.00
2023-01-20T00:48:56.999Z,27.80
2023-01-20T00:49:56.822Z,26.70
2023-01-20T00:50:57.509Z,30.10
2023-01-20T00:51:56.846Z,27.00
2023-01-20T00:53:02.822Z,27.30
2023-01-20T00:53:56.777Z,29.90
2023-01-20T00:54:56.749Z,29.70
2023-01-20T00:55:56.766Z,26.70
2023-01-20T00:56:56.731Z,27.40
2023-01-20T00:57:56.721Z,30.90
2023-01-20T00:58:56.708Z,32.20
2023-01-20T00:59:56.697Z,25.80
2023-01-20T01:00:56.892Z,23.70
2023-01-20T01:01:56.778Z,24.90
2023-01-20T01:02:56.661Z,28.20
2023-01-20T01:03:56.644Z,26.50
2023-01-20T01:04:56.630Z,23.30
2023-01-20T01:05:56.633Z,21.50
2023-01-20T01:06:56.607Z,22.60
2023-01-20T01:07:56.599Z,22.50
2023-01-20T01:08:56.583Z,24.40
2023-01-20T01:09:56.572Z,19.90
2023-01-20T01:10:56.589Z,23.10
2023-01-20T01:11:56.547Z,23.80
2023-01-20T01:12:56.533Z,25.30
2023-01-20T01:13:56.522Z,24.10
2023-01-20T01:14:56.508Z,26.20
2023-01-20T01:15:56.537Z,26.30
2023-01-20T01:16:57.453Z,22.70
2023-01-20T01:17:56.474Z,21.70
2023-01-20T01:18:56.469Z,22.80
2023-01-20T01:19:56.449Z,23.10
2023-01-20T01:20:56.478Z,25.40
2023-01-20T01:21:56.425Z,27.60
2023-01-20T01:22:56.405Z,23.70
2023-01-20T01:23:56.404Z,26.60
2023-01-20T01:24:56.375Z,31.50
2023-01-20T01:25:56.398Z,25.90
2023-01-20T01:26:56.357Z,24.50
2023-01-20T01:27:56.349Z,25.50
2023-01-20T01:28:56.340Z,25.80
2023-01-20T01:29:56.321Z,25.10
2023-01-20T01:30:56.337Z,24.70
2023-01-20T01:31:56.296Z,22.10
2023-01-20T01:32:56.280Z,27.30
2023-01-20T01:33:56.270Z,23.00
2023-01-20T01:34:56.263Z,28.00
2023-01-20T01:35:56.284Z,26.30
2023-01-20T01:36:56.235Z,26.10
2023-01-20T01:37:56.220Z,29.60
2023-01-20T01:38:57.399Z,28.70
2023-01-20T01:39:56.199Z,34.90
2023-01-20T01:40:56.208Z,31.20
2023-01-20T01:41:56.171Z,31.80
2023-01-20T01:42:56.171Z,32.40
2023-01-20T01:43:56.150Z,32.20
2023-01-20T01:44:56.132Z,34.00
2023-01-20T01:45:56.211Z,33.50
2023-01-20T01:46:56.107Z,32.40
2023-01-20T01:47:56.092Z,32.20
2023-01-20T01:48:56.092Z,36.20
2023-01-20T01:49:56.081Z,35.10
2023-01-20T01:50:56.077Z,32.00
2023-01-20T01:51:56.044Z,33.60
2023-01-20T01:52:56.044Z,33.20
2023-01-20T01:53:56.023Z,30.00
2023-01-20T01:54:56.004Z,29.40
2023-01-20T01:55:56.011Z,34.50
2023-01-20T01:56:55.974Z,32.10
2023-01-20T01:57:55.973Z,37.10
2023-01-20T01:58:55.977Z,34.30
2023-01-20T01:59:55.952Z,34.60
2023-01-20T02:00:55.977Z,32.10
2023-01-20T02:01:56.067Z,34.20
2023-01-20T02:02:55.902Z,30.70
2023-01-20T02:03:55.903Z,30.00
2023-01-20T02:04:55.880Z,36.60
2023-01-20T02:05:55.914Z,36.20
2023-01-20T02:06:55.857Z,36.50
2023-01-20T02:07:55.858Z,34.40
2023-01-20T02:08:55.829Z,34.00
2023-01-20T02:09:55.824Z,33.20
2023-01-20T02:10:55.852Z,38.90
2023-01-20T02:11:55.792Z,32.90
2023-01-20T02:12:55.785Z,38.20
2023-01-20T02:13:55.775Z,38.50
2023-01-20T02:14:55.751Z,38.60
2023-01-20T02:15:55.789Z,40.60
2023-01-20T02:16:55.731Z,37.60
2023-01-20T02:17:55.731Z,39.10
2023-01-20T02:18:55.705Z,41.60
2023-01-20T02:19:55.701Z,40.50
2023-01-20T02:20:55.713Z,42.50
2023-01-20T02:21:55.682Z,41.20
2023-01-20T02:22:55.657Z,38.70
2023-01-20T02:23:55.655Z,43.70
2023-01-20T02:24:55.639Z,36.70
2023-01-20T02:25:55.619Z,39.80
2023-01-20T02:26:55.636Z,40.40
2023-01-20T02:27:55.596Z,35.50
2023-01-20T02:28:55.579Z,33.30
2023-01-20T02:29:55.572Z,36.00
2023-01-20T02:30:55.560Z,30.20
2023-01-20T02:31:55.618Z,30.20
2023-01-20T02:32:55.532Z,31.20
2023-01-20T02:33:55.523Z,30.20
2023-01-20T02:34:55.510Z,30.80
2023-01-20T02:35:55.496Z,28.80
2023-01-20T02:36:55.503Z,30.20
2023-01-20T02:37:55.470Z,31.60
2023-01-20T02:38:55.462Z,35.40
2023-01-20T02:39:55.446Z,33.70
2023-01-20T02:40:55.435Z,36.00
2023-01-20T02:41:55.449Z,35.50
2023-01-20T02:42:55.429Z,34.70
2023-01-20T02:43:55.392Z,37.40
2023-01-20T02:44:55.381Z,32.70
2023-01-20T02:45:55.396Z,31.40
2023-01-20T02:46:55.358Z,28.70
2023-01-20T02:47:55.381Z,31.60
2023-01-20T02:48:55.327Z,35.70
2023-01-20T02:49:55.325Z,36.40
2023-01-20T02:50:55.306Z,42.40
2023-01-20T02:51:55.296Z,46.10
2023-01-20T02:52:55.297Z,45.90
2023-01-20T02:53:55.265Z,48.00
2023-01-20T02:54:55.261Z,53.20
2023-01-20T02:55:55.255Z,51.00
2023-01-20T02:56:55.231Z,49.90
2023-01-20T02:57:55.236Z,53.80
2023-01-20T02:58:55.209Z,48.50
2023-01-20T02:59:55.202Z,51.00
2023-01-20T03:00:55.216Z,51.50
2023-01-20T03:01:55.355Z,51.50
2023-01-20T03:02:55.182Z,46.30
2023-01-20T03:03:55.170Z,47.30
2023-01-20T03:04:55.132Z,51.10
2023-01-20T03:05:55.195Z,43.00
2023-01-20T03:06:55.116Z,43.10
2023-01-20T03:07:55.351Z,42.00
2023-01-20T03:08:55.072Z,46.30
2023-01-20T03:09:55.075Z,42.20
2023-01-20T03:10:55.055Z,41.00
2023-01-20T03:11:55.043Z,40.60
2023-01-20T03:12:55.049Z,41.90
2023-01-20T03:13:55.028Z,37.00
2023-01-20T03:14:54.995Z,42.60
2023-01-20T03:15:54.989Z,39.00
2023-01-20T03:16:55.080Z,41.20
2023-01-20T03:17:54.983Z,39.20
2023-01-20T03:18:54.951Z,36.40
2023-01-20T03:19:54.948Z,37.10
2023-01-20T03:20:54.920Z,36.90
2023-01-20T03:21:54.927Z,37.60
2023-01-20T03:22:54.900Z,36.90
2023-01-20T03:23:54.886Z,33.90
2023-01-20T03:24:54.873Z,39.20
2023-01-20T03:25:54.866Z,33.70
2023-01-20T03:26:54.866Z,34.00
2023-01-20T03:27:54.839Z,31.30
2023-01-20T03:28:54.815Z,35.90
2023-01-20T03:29:54.816Z,30.40
2023-01-20T03:30:54.875Z,38.00
2023-01-20T03:31:54.804Z,29.30
2023-01-20T03:32:54.771Z,34.60
2023-01-20T03:33:54.782Z,27.90
2023-01-20T03:34:54.746Z,30.30
2023-01-20T03:35:54.733Z,32.20
2023-01-20T03:36:54.741Z,30.30
2023-01-20T03:37:54.709Z,32.00
2023-01-20T03:38:54.740Z,30.60
2023-01-20T03:39:54.689Z,31.30
2023-01-20T03:40:54.667Z,31.70
2023-01-20T03:41:54.680Z,31.00
2023-01-20T03:42:54.643Z,28.50
2023-01-20T03:43:54.639Z,30.40
2023-01-20T03:44:54.651Z,30.90
2023-01-20T03:45:54.627Z,25.50
2023-01-20T03:46:54.627Z,26.70
2023-01-20T03:47:54.579Z,29.40
2023-01-20T03:48:54.575Z,27.70
2023-01-20T03:49:54.559Z,25.70
2023-01-20T03:50:54.550Z,25.00
2023-01-20T03:51:54.531Z,27.00
2023-01-20T03:52:54.543Z,26.30
2023-01-20T03:53:54.505Z,29.70
2023-01-20T03:54:54.502Z,29.10
2023-01-20T03:55:54.509Z,30.00
2023-01-20T03:56:54.475Z,31.90
2023-01-20T03:57:54.477Z,27.00
2023-01-20T03:58:54.447Z,28.70
2023-01-20T03:59:54.431Z,28.30
2023-01-20T04:00:54.457Z,29.00
2023-01-20T04:01:54.522Z,28.70
2023-01-20T04:02:54.418Z,31.50
2023-01-20T04:03:54.376Z,35.90
2023-01-20T04:04:54.366Z,30.20
2023-01-20T04:05:54.345Z,33.20
2023-01-20T04:06:54.335Z,31.90
2023-01-20T04:07:54.348Z,28.30
2023-01-20T04:08:56.634Z,28.50
2023-01-20T04:09:54.304Z,29.10
2023-01-20T04:10:54.295Z,27.90
2023-01-20T04:11:54.285Z,29.90
2023-01-20T04:12:54.287Z,28.90
2023-01-20T04:13:54.259Z,28.50
2023-01-20T04:14:54.245Z,26.70
2023-01-20T04:15:54.287Z,26.70
2023-01-20T04:16:54.223Z,28.00
2023-01-20T04:17:54.212Z,29.80
2023-01-20T04:18:54.208Z,28.40
2023-01-20T04:19:54.184Z,26.80
2023-01-20T04:20:54.168Z,31.60
2023-01-20T04:21:54.155Z,29.00
2023-01-20T04:22:54.142Z,26.90
2023-01-20T04:23:54.162Z,27.80
2023-01-20T04:24:54.114Z,30.60
2023-01-20T04:25:54.101Z,29.70
2023-01-20T04:26:54.091Z,31.70
2023-01-20T04:27:54.281Z,30.20
2023-01-20T04:28:54.067Z,29.30
2023-01-20T04:29:54.049Z,32.00
2023-01-20T04:30:54.187Z,34.50
2023-01-20T04:31:54.080Z,35.80
2023-01-20T04:32:54.045Z,35.20
2023-01-20T04:33:54.009Z,39.30
2023-01-20T04:34:53.994Z,40.50
2023-01-20T04:35:53.976Z,39.90
2023-01-20T04:36:53.964Z,38.60
2023-01-20T04:37:53.970Z,46.50
2023-01-20T04:38:53.941Z,42.30
2023-01-20T04:39:53.919Z,44.10
2023-01-20T04:40:53.907Z,43.80
2023-01-20T04:41:53.891Z,39.30
2023-01-20T04:42:53.894Z,44.40
2023-01-20T04:43:53.891Z,48.00
2023-01-20T04:44:53.884Z,44.70
2023-01-20T04:45:53.890Z,42.30
2023-01-20T04:46:53.838Z,48.00
2023-01-20T04:47:53.821Z,42.80
2023-01-20T04:48:53.811Z,40.10
2023-01-20T04:49:53.812Z,43.80
2023-01-20T04:50:53.777Z,43.40
2023-01-20T04:51:53.765Z,44.40
2023-01-20T04:52:53.756Z,44.70
2023-01-20T04:53:53.762Z,45.90
2023-01-20T04:54:53.743Z,42.20
2023-01-20T04:55:53.717Z,45.70
2023-01-20T04:56:53.710Z,52.90
2023-01-20T04:57:53.688Z,51.60
2023-01-20T04:58:53.711Z,52.00
2023-01-20T04:59:53.668Z,55.10
2023-01-20T05:00:53.651Z,59.20
2023-01-20T05:01:53.794Z,61.40
2023-01-20T05:02:53.688Z,52.50
2023-01-20T05:03:53.633Z,61.90
2023-01-20T05:04:53.621Z,64.70
2023-01-20T05:05:53.589Z,65.50
2023-01-20T05:06:53.578Z,76.80
2023-01-20T05:07:53.565Z,118.10
2023-01-20T05:08:53.553Z,123.20
2023-01-20T05:09:53.554Z,145.00
2023-01-20T05:10:52.524Z,138.60
2023-01-20T05:11:53.513Z,111.90
2023-01-20T05:12:53.515Z,89.40
2023-01-20T05:13:53.485Z,110.60
2023-01-20T05:14:53.504Z,109.90
2023-01-20T05:15:53.489Z,115.80
2023-01-20T05:17:12.525Z,118.10
2023-01-20T05:17:53.437Z,121.80
2023-01-20T05:18:53.444Z,213.90
2023-01-20T05:19:53.441Z,159.40
2023-01-20T05:20:53.403Z,101.60
2023-01-20T05:21:53.384Z,92.90
2023-01-20T05:22:53.392Z,120.40
2023-01-20T05:23:53.364Z,77.30
2023-01-20T05:24:53.377Z,86.10
2023-01-20T05:25:53.328Z,55.60
2023-01-20T05:26:53.323Z,53.90
2023-01-20T05:27:53.315Z,48.40
2023-01-20T05:28:53.303Z,48.10
2023-01-20T05:29:53.286Z,40.20
2023-01-20T05:30:53.416Z,45.90
2023-01-20T05:31:53.512Z,44.90
2023-01-20T05:32:53.256Z,43.60
2023-01-20T05:33:53.259Z,53.90
2023-01-20T05:34:53.222Z,50.00
2023-01-20T05:35:55.784Z,46.50
2023-01-20T05:36:53.203Z,46.10
2023-01-20T05:37:53.183Z,54.40
2023-01-20T05:38:53.184Z,49.90
2023-01-20T05:39:53.155Z,57.60
2023-01-20T05:40:53.145Z,52.90
2023-01-20T05:41:53.132Z,55.20
2023-01-20T05:42:53.125Z,53.80
2023-01-20T05:43:53.122Z,51.60
2023-01-20T05:44:53.096Z,50.00
2023-01-20T05:45:53.099Z,48.30
2023-01-20T05:46:53.084Z,49.30
2023-01-20T05:47:53.055Z,48.00
2023-01-20T05:48:53.046Z,52.00
2023-01-20T05:49:53.035Z,55.40
2023-01-20T05:50:53.038Z,57.00
2023-01-20T05:51:53.000Z,50.20
2023-01-20T05:52:53.003Z,64.90
2023-01-20T05:53:52.985Z,95.50
2023-01-20T05:54:52.968Z,83.00
2023-01-20T05:55:52.968Z,75.10
2023-01-20T05:56:52.950Z,87.00
2023-01-20T05:57:52.932Z,88.70
2023-01-20T05:58:52.945Z,80.10
2023-01-20T05:59:52.918Z,94.30
2023-01-20T06:00:52.894Z,74.90
2023-01-20T06:01:52.878Z,63.60
2023-01-20T06:02:52.929Z,67.40
2023-01-20T06:03:52.890Z,68.80
2023-01-20T06:04:52.866Z,97.70
2023-01-20T06:05:52.847Z,122.00
2023-01-20T06:06:52.822Z,112.10
2023-01-20T06:07:52.929Z,111.00
2023-01-20T06:08:52.797Z,97.90
2023-01-20T06:09:52.779Z,106.20
2023-01-20T06:10:52.786Z,107.80
2023-01-20T06:11:55.190Z,75.70
2023-01-20T06:12:52.741Z,100.60
2023-01-20T06:13:52.741Z,86.70
2023-01-20T06:14:52.716Z,105.10
2023-01-20T06:15:52.757Z,129.50
2023-01-20T06:16:52.690Z,96.90
2023-01-20T06:17:52.682Z,134.70
2023-01-20T06:18:52.663Z,121.30
2023-01-20T06:19:52.661Z,134.50
2023-01-20T06:20:52.667Z,120.10
2023-01-20T06:21:52.627Z,126.10
2023-01-20T06:22:52.614Z,79.70
2023-01-20T06:23:52.608Z,84.50
2023-01-20T06:24:52.609Z,102.60
2023-01-20T06:25:52.576Z,122.40
2023-01-20T06:26:52.561Z,97.00
2023-01-20T06:27:52.595Z,91.50
2023-01-20T06:28:52.554Z,92.50
2023-01-20T06:29:52.589Z,99.10
2023-01-20T06:30:52.557Z,113.10
2023-01-20T06:31:52.560Z,115.10
2023-01-20T06:32:52.540Z,104.60
2023-01-20T06:33:52.481Z,127.40
2023-01-20T06:34:52.459Z,126.50
2023-01-20T06:35:52.452Z,110.30
2023-01-20T06:36:52.487Z,89.90
2023-01-20T06:37:52.425Z,93.90
2023-01-20T06:38:52.422Z,61.90
2023-01-20T06:39:52.399Z,95.60
2023-01-20T06:40:52.386Z,88.50
2023-01-20T06:41:52.384Z,68.50
2023-01-20T06:42:52.370Z,85.40
2023-01-20T06:43:52.348Z,57.30
2023-01-20T06:44:52.347Z,52.60
2023-01-20T06:45:52.270Z,45.20
2023-01-20T06:46:52.461Z,49.00
2023-01-20T06:47:52.241Z,52.90
2023-01-20T06:48:52.232Z,44.50
2023-01-20T06:49:52.237Z,40.40
2023-01-20T06:50:52.221Z,51.40
2023-01-20T06:51:52.272Z,45.00
2023-01-20T06:52:52.241Z,40.80
2023-01-20T06:53:52.214Z,43.60
2023-01-20T06:54:52.208Z,45.10
2023-01-20T06:55:53.043Z,43.80
2023-01-20T06:56:52.145Z,39.80
2023-01-20T06:57:52.116Z,44.50
2023-01-20T06:58:52.133Z,44.60
2023-01-20T06:59:52.112Z,40.90
2023-01-20T07:00:52.150Z,41.90
2023-01-20T07:03:08.781Z,42.00
2023-01-20T07:04:09.760Z,47.20
2023-01-20T07:05:09.788Z,41.80
2023-01-20T07:06:09.744Z,48.80
2023-01-20T07:07:09.726Z,38.10
2023-01-20T07:08:09.818Z,38.60
2023-01-20T07:09:09.700Z,42.40
2023-01-20T07:10:09.721Z,44.70
2023-01-20T07:11:09.684Z,42.20
2023-01-20T07:12:09.739Z,40.40
2023-01-20T07:13:09.677Z,44.20
2023-01-20T07:14:09.636Z,35.60
2023-01-20T07:15:09.675Z,39.00
2023-01-20T07:16:12.022Z,38.10
2023-01-20T07:17:09.883Z,39.20
2023-01-20T07:18:09.683Z,41.60
2023-01-20T07:19:09.590Z,42.80
2023-01-20T07:20:09.583Z,42.00
2023-01-20T07:21:09.595Z,48.50
2023-01-20T07:22:09.954Z,41.50
2023-01-20T07:23:09.540Z,42.80
2023-01-20T07:24:09.560Z,37.50
2023-01-20T07:25:09.538Z,41.90
2023-01-20T07:26:09.516Z,37.30
2023-01-20T07:27:09.491Z,38.70
2023-01-20T07:28:09.487Z,36.90
2023-01-20T07:29:09.477Z,40.20
2023-01-20T07:30:09.489Z,36.70
2023-01-20T07:31:09.442Z,39.60
2023-01-20T07:32:09.422Z,37.20
2023-01-20T07:33:09.473Z,36.20
2023-01-20T07:34:09.402Z,36.10
2023-01-20T07:35:09.386Z,34.70
2023-01-20T07:36:09.357Z,36.70
2023-01-20T07:37:09.475Z,31.60
2023-01-20T07:38:09.364Z,39.00
2023-01-20T07:39:09.337Z,30.60
2023-01-20T07:40:09.326Z,35.80
2023-01-20T07:41:09.303Z,29.20
2023-01-20T07:42:09.366Z,29.00
2023-01-20T07:43:09.271Z,31.90
2023-01-20T07:44:09.264Z,31.20
2023-01-20T07:45:09.246Z,32.00
2023-01-20T07:46:09.243Z,35.00
2023-01-20T07:47:09.237Z,34.10
2023-01-20T07:48:09.237Z,32.00
2023-01-20T07:49:11.966Z,32.20
2023-01-20T07:50:09.194Z,29.60
2023-01-20T07:51:09.170Z,31.30
2023-01-20T07:52:09.213Z,36.80
2023-01-20T07:53:09.134Z,34.30
2023-01-20T07:54:09.154Z,37.00
2023-01-20T07:55:09.128Z,29.30
2023-01-20T07:56:09.135Z,30.50
2023-01-20T07:57:09.133Z,29.50
2023-01-20T07:58:09.087Z,27.50
2023-01-20T07:59:09.088Z,28.70
2023-01-20T08:00:09.165Z,27.60
2023-01-20T08:01:09.230Z,28.90
2023-01-20T08:02:09.048Z,37.30
2023-01-20T08:03:09.049Z,31.60
2023-01-20T08:04:09.005Z,29.30
2023-01-20T08:05:09.032Z,28.90
2023-01-20T08:06:09.053Z,32.20
2023-01-20T08:07:08.996Z,32.00
2023-01-20T08:08:08.962Z,34.10
2023-01-20T08:09:08.948Z,33.60
2023-01-20T08:10:08.935Z,32.50
2023-01-20T08:11:08.957Z,32.90
2023-01-20T08:12:08.932Z,36.70
2023-01-20T08:13:08.931Z,34.00
2023-01-20T08:14:08.912Z,28.40
2023-01-20T08:15:08.877Z,34.50
2023-01-20T08:16:08.883Z,36.00
2023-01-20T08:17:08.845Z,29.30
2023-01-20T08:18:08.827Z,37.30
2023-01-20T08:19:08.827Z,34.70
2023-01-20T08:20:08.834Z,34.00
2023-01-20T08:21:08.815Z,32.50
2023-01-20T08:22:08.777Z,32.90
2023-01-20T08:23:08.789Z,29.10
2023-01-20T08:24:08.759Z,36.00
2023-01-20T08:25:08.785Z,32.60
2023-01-20T08:26:08.724Z,32.20
2023-01-20T08:27:08.715Z,33.90
2023-01-20T08:28:08.779Z,32.10
2023-01-20T08:29:08.739Z,31.20
2023-01-20T08:30:08.702Z,32.40
2023-01-20T08:31:08.895Z,31.80
2023-01-20T08:32:08.646Z,37.70
2023-01-20T08:33:08.685Z,30.20
2023-01-20T08:34:08.680Z,34.90
2023-01-20T08:35:08.655Z,32.00
2023-01-20T08:36:08.629Z,33.20
2023-01-20T08:37:08.628Z,32.20
2023-01-20T08:38:08.661Z,33.30
2023-01-20T08:39:08.575Z,34.70
2023-01-20T08:40:08.558Z,37.10
2023-01-20T08:41:08.567Z,36.70
2023-01-20T08:42:08.565Z,34.20
2023-01-20T08:43:08.557Z,36.50
2023-01-20T08:44:08.537Z,40.00
2023-01-20T08:45:08.570Z,33.10
2023-01-20T08:46:08.686Z,41.60
2023-01-20T08:47:08.459Z,41.50
2023-01-20T08:48:08.494Z,42.00
2023-01-20T08:49:08.475Z,43.60
2023-01-20T08:50:08.437Z,39.60
2023-01-20T08:51:08.435Z,45.60
2023-01-20T08:52:10.167Z,42.70
2023-01-20T08:53:08.404Z,40.80
2023-01-20T08:54:08.391Z,39.20
2023-01-20T08:55:08.443Z,42.40
2023-01-20T08:56:08.395Z,35.90
2023-01-20T08:57:08.335Z,40.70
2023-01-20T08:58:08.350Z,36.00
2023-01-20T08:59:08.373Z,34.90
2023-01-20T09:00:08.303Z,36.80
2023-01-20T09:01:08.314Z,33.00
2023-01-20T09:02:08.332Z,31.10
2023-01-20T09:03:08.329Z,33.00
2023-01-20T09:04:08.258Z,30.60
2023-01-20T09:05:08.278Z,32.70
2023-01-20T09:06:08.277Z,27.10
2023-01-20T09:07:08.208Z,26.40
2023-01-20T09:08:08.255Z,23.00
2023-01-20T09:09:08.237Z,25.50
2023-01-20T09:10:08.198Z,25.90
2023-01-20T09:11:08.228Z,25.80
2023-01-20T09:12:08.162Z,23.70
2023-01-20T09:13:08.146Z,22.30
2023-01-20T09:14:08.151Z,27.20
2023-01-20T09:15:08.133Z,25.30
2023-01-20T09:16:08.148Z,24.30
2023-01-20T09:17:08.113Z,22.80
2023-01-20T09:18:08.083Z,25.80
2023-01-20T09:19:08.121Z,25.60
2023-01-20T09:20:08.061Z,25.30
2023-01-20T09:21:08.174Z,25.60
2023-01-20T09:22:08.043Z,23.30
2023-01-20T09:23:08.022Z,25.30
2023-01-20T09:24:08.035Z,24.70
2023-01-20T09:25:07.988Z,23.70
2023-01-20T09:26:08.005Z,26.30
2023-01-20T09:27:07.947Z,26.50
2023-01-20T09:28:08.033Z,24.60
2023-01-20T09:29:07.989Z,26.40
2023-01-20T09:30:07.953Z,27.20
2023-01-20T09:31:08.071Z,23.80
2023-01-20T09:32:07.926Z,23.60
2023-01-20T09:33:07.884Z,21.70
2023-01-20T09:34:08.001Z,23.00
2023-01-20T09:35:07.852Z,26.50
2023-01-20T09:36:07.903Z,26.30
2023-01-20T09:37:07.855Z,23.20
2023-01-20T09:38:08.730Z,22.00
2023-01-20T09:39:07.825Z,24.20
2023-01-20T09:40:07.805Z,24.20
2023-01-20T09:41:07.949Z,25.30
2023-01-20T09:42:07.797Z,20.70
2023-01-20T09:43:07.871Z,20.90
2023-01-20T09:44:07.771Z,24.70
2023-01-20T09:45:07.748Z,24.50
2023-01-20T09:46:07.743Z,21.50
2023-01-20T09:47:07.685Z,23.70
2023-01-20T09:48:07.749Z,24.70
2023-01-20T09:49:07.686Z,22.90
2023-01-20T09:50:07.664Z,26.70
2023-01-20T09:51:07.706Z,22.20
2023-01-20T09:52:07.651Z,23.40
2023-01-20T09:53:07.619Z,22.20
2023-01-20T09:54:07.723Z,22.60
2023-01-20T09:55:07.643Z,21.50
2023-01-20T09:56:08.554Z,25.30
2023-01-20T09:57:07.584Z,22.50
2023-01-20T09:58:07.553Z,23.60
2023-01-20T09:59:07.629Z,21.50
2023-01-20T10:00:07.581Z,23.90
2023-01-20T10:01:07.666Z,23.80
2023-01-20T10:02:07.524Z,22.60
2023-01-20T10:03:07.519Z,20.00
2023-01-20T10:04:07.480Z,21.80
2023-01-20T10:05:07.590Z,25.90
2023-01-20T10:06:07.608Z,25.90
2023-01-20T10:07:07.446Z,29.80
2023-01-20T10:08:07.575Z,20.90
2023-01-20T10:09:07.460Z,21.80
2023-01-20T10:10:07.448Z,24.30
2023-01-20T10:11:07.432Z,24.40
2023-01-20T10:12:07.386Z,20.20
2023-01-20T10:13:07.348Z,23.70
2023-01-20T10:14:07.352Z,21.60
2023-01-20T10:15:07.432Z,20.10
2023-01-20T10:16:07.433Z,23.70
2023-01-20T10:17:07.318Z,23.90
2023-01-20T10:18:07.344Z,21.50
2023-01-20T10:19:07.275Z,23.00
2023-01-20T10:20:07.477Z,22.90
2023-01-20T10:21:07.261Z,20.60
2023-01-20T10:22:07.265Z,24.10
2023-01-20T10:23:07.229Z,21.50
2023-01-20T10:24:07.223Z,22.60
2023-01-20T10:25:07.305Z,23.60
2023-01-20T10:26:07.232Z,22.30
2023-01-20T10:27:07.201Z,20.90
2023-01-20T10:28:07.179Z,19.40
2023-01-20T10:29:07.218Z,20.10
2023-01-20T10:30:07.191Z,22.10
2023-01-20T10:31:07.297Z,21.50
2023-01-20T10:32:07.131Z,20.80
2023-01-20T10:33:07.125Z,23.20
2023-01-20T10:34:07.083Z,20.80
2023-01-20T10:35:07.099Z,21.30
2023-01-20T10:36:07.103Z,20.00
2023-01-20T10:37:07.087Z,19.90
2023-01-20T10:38:07.054Z,22.00
2023-01-20T10:39:07.050Z,21.80
2023-01-20T10:40:07.010Z,23.20
2023-01-20T10:41:06.987Z,20.90
2023-01-20T10:42:07.077Z,24.50
2023-01-20T10:43:06.982Z,21.40
2023-01-20T10:44:06.973Z,22.20
2023-01-20T10:45:06.951Z,22.10
2023-01-20T10:46:07.108Z,25.30
2023-01-20T10:47:07.052Z,25.30
2023-01-20T10:48:06.950Z,20.40
2023-01-20T10:49:06.992Z,18.30
2023-01-20T10:50:06.955Z,19.60
2023-01-20T10:51:06.863Z,18.40
2023-01-20T10:52:06.903Z,17.90
2023-01-20T10:53:06.842Z,18.90
2023-01-20T10:54:06.883Z,16.30
2023-01-20T10:55:06.866Z,16.50
2023-01-20T10:56:06.832Z,18.80
2023-01-20T10:57:06.804Z,17.70
2023-01-20T10:58:06.813Z,16.20
2023-01-20T10:59:06.763Z,17.50
2023-01-20T11:00:06.755Z,17.00
2023-01-20T11:01:06.760Z,17.00
2023-01-20T11:02:12.350Z,20.00
2023-01-20T11:03:06.761Z,22.50
2023-01-20T11:04:06.724Z,23.20
2023-01-20T11:05:06.710Z,24.10
2023-01-20T11:06:06.723Z,27.80
2023-01-20T11:07:06.664Z,27.60
2023-01-20T11:08:06.984Z,25.20
2023-01-20T11:09:06.634Z,24.80
2023-01-20T11:10:06.654Z,23.90
2023-01-20T11:11:06.612Z,25.00
2023-01-20T11:12:06.680Z,25.70
2023-01-20T11:13:06.613Z,24.80
2023-01-20T11:14:06.576Z,26.10
2023-01-20T11:15:06.586Z,25.50
2023-01-20T11:16:06.609Z,24.40
2023-01-20T11:17:06.583Z,28.00
2023-01-20T11:18:06.551Z,27.50
2023-01-20T11:19:06.509Z,27.70
2023-01-20T11:20:06.537Z,23.70
2023-01-20T11:21:06.515Z,26.00
2023-01-20T11:22:06.480Z,25.80
2023-01-20T11:23:06.516Z,25.60
2023-01-20T11:24:06.508Z,28.70
2023-01-20T11:25:06.432Z,22.90
2023-01-20T11:26:06.491Z,24.10
2023-01-20T11:27:06.418Z,23.00
2023-01-20T11:28:06.451Z,21.40
2023-01-20T11:29:06.382Z,24.60
2023-01-20T11:30:06.401Z,23.10
2023-01-20T11:31:06.455Z,24.20
2023-01-20T11:32:06.362Z,22.20
2023-01-20T11:33:06.368Z,20.70
2023-01-20T11:34:06.327Z,20.00
2023-01-20T11:35:06.441Z,21.00
2023-01-20T11:36:06.352Z,22.10
2023-01-20T11:37:06.307Z,22.70
2023-01-20T11:38:06.267Z,22.70
2023-01-20T11:39:06.261Z,21.90
2023-01-20T11:40:06.416Z,24.00
2023-01-20T11:41:06.282Z,21.40
2023-01-20T11:42:06.253Z,19.50
2023-01-20T11:43:06.195Z,21.10
2023-01-20T11:44:06.420Z,19.70
2023-01-20T11:45:20.896Z,21.70
2023-01-20T11:46:06.179Z,18.80
2023-01-20T11:47:06.163Z,21.20
2023-01-20T11:48:06.142Z,22.60
2023-01-20T11:49:06.154Z,19.30
2023-01-20T11:50:06.193Z,19.80
2023-01-20T11:51:06.091Z,18.90
2023-01-20T11:52:06.085Z,20.30
2023-01-20T11:53:06.087Z,17.50
2023-01-20T11:54:06.083Z,23.60
2023-01-20T11:55:06.049Z,18.10
2023-01-20T11:56:06.042Z,20.00
2023-01-20T11:57:06.025Z,24.00
2023-01-20T11:58:06.000Z,19.50
2023-01-20T11:59:06.066Z,19.80
2023-01-20T12:00:06.166Z,18.00
2023-01-20T12:01:05.984Z,19.20
2023-01-20T12:02:06.006Z,17.50
2023-01-20T12:03:05.996Z,17.30
2023-01-20T12:04:06.005Z,17.30
2023-01-20T12:05:05.937Z,17.20
2023-01-20T12:06:05.951Z,17.20
2023-01-20T12:07:05.934Z,17.10
2023-01-20T12:08:05.979Z,15.70
2023-01-20T12:09:05.896Z,17.70
2023-01-20T12:10:06.618Z,17.70
2023-01-20T12:11:05.834Z,15.80
2023-01-20T12:12:05.954Z,15.10
2023-01-20T12:13:05.832Z,18.90
2023-01-20T12:14:05.953Z,13.70
2023-01-20T12:15:05.779Z,17.60
2023-01-20T12:16:05.781Z,13.50
2023-01-20T12:17:05.853Z,13.40
2023-01-20T12:18:08.183Z,12.80
2023-01-20T12:19:05.749Z,11.90
2023-01-20T12:20:05.710Z,17.00
2023-01-20T12:21:05.778Z,12.10
2023-01-20T12:22:05.696Z,14.10
2023-01-20T12:23:05.737Z,14.50
2023-01-20T12:24:05.658Z,14.10
2023-01-20T12:25:05.656Z,14.60
2023-01-20T12:26:05.672Z,17.50
2023-01-20T12:27:05.675Z,13.70
2023-01-20T12:28:05.644Z,17.50
2023-01-20T12:29:05.708Z,11.80
2023-01-20T12:30:05.627Z,12.20
2023-01-20T12:31:05.639Z,13.20
2023-01-20T12:32:05.657Z,14.00
2023-01-20T12:33:05.574Z,13.60
2023-01-20T12:34:05.570Z,14.30
2023-01-20T12:35:05.518Z,14.00
2023-01-20T12:36:05.605Z,15.90
2023-01-20T12:37:05.538Z,17.10
2023-01-20T12:38:05.531Z,14.00
2023-01-20T12:39:05.500Z,15.80
2023-01-20T12:40:05.496Z,14.50
2023-01-20T12:41:05.441Z,16.10
2023-01-20T12:42:05.424Z,15.10
2023-01-20T12:43:05.549Z,12.40
2023-01-20T12:44:05.425Z,11.90
2023-01-20T12:45:05.456Z,13.50
2023-01-20T12:46:05.389Z,12.60
2023-01-20T12:47:05.396Z,15.50
2023-01-20T12:48:05.394Z,13.80
2023-01-20T12:49:05.339Z,14.60
2023-01-20T12:50:05.378Z,12.00
2023-01-20T12:51:05.331Z,11.70
2023-01-20T12:52:05.346Z,12.10
2023-01-20T12:53:05.285Z,12.80